createdAt,value
2023-04-01T00:00:43.648Z,61.3
2023-04-01T00:02:43.654Z,64
2023-04-01T00:04:43.667Z,63.8
2023-04-01T00:06:43.669Z,63.3
2023-04-01T00:08:43.642Z,63.3
2023-04-01T00:10:43.555Z,62.6
2023-04-01T00:12:43.624Z,63.2
2023-04-01T00:14:43.593Z,63.4
2023-04-01T00:16:43.733Z,63.3
2023-04-01T00:18:43.648Z,63.7
2023-04-01T00:20:43.605Z,63
2023-04-01T00:22:58.095Z,65
2023-04-01T00:24:43.589Z,63.5
2023-04-01T00:26:43.664Z,63.7
2023-04-01T00:28:43.588Z,65.6
2023-04-01T00:30:43.559Z,64.9
2023-04-01T00:32:44.144Z,66.1
2023-04-01T00:34:43.625Z,65
2023-04-01T00:36:43.637Z,66.7
2023-04-01T00:38:43.576Z,65.7
2023-04-01T00:40:43.646Z,66.2
2023-04-01T00:43:02.444Z,65.3
2023-04-01T00:44:43.585Z,65.3
2023-04-01T00:46:43.636Z,68
2023-04-01T00:48:43.713Z,66.7
2023-04-01T00:50:43.613Z,69.3
2023-04-01T00:52:43.655Z,67.6
2023-04-01T00:54:43.579Z,67.6
2023-04-01T00:56:43.634Z,69.2
2023-04-01T00:58:43.530Z,71.1
2023-04-01T01:00:43.643Z,73.1
2023-04-01T01:02:43.753Z,71.1
2023-04-01T01:04:43.538Z,69.6
2023-04-01T01:06:43.605Z,70.3
2023-04-01T01:08:43.572Z,69.5
2023-04-01T01:10:43.604Z,69.4
2023-04-01T01:12:43.536Z,70.4
2023-04-01T01:14:43.514Z,70.3
2023-04-01T01:16:43.575Z,71.5
2023-04-01T01:18:43.551Z,70.6
2023-04-01T01:19:44.270Z,70.6
2023-04-01T01:22:43.555Z,72.8
2023-04-01T01:24:43.484Z,72.6
2023-04-01T01:26:43.525Z,72.8
2023-04-01T01:28:43.587Z,71.5
2023-04-01T01:30:43.535Z,71.4
2023-04-01T01:32:43.587Z,75.1
2023-04-01T01:34:43.578Z,72.3
2023-04-01T01:36:43.533Z,72
2023-04-01T01:38:43.501Z,75.2
2023-04-01T01:40:57.209Z,75
2023-04-01T01:42:43.508Z,75.3
2023-04-01T01:44:43.535Z,74.4
2023-04-01T01:46:43.608Z,75.2
2023-04-01T01:48:43.550Z,75.3
2023-04-01T01:50:43.487Z,73.8
2023-04-01T01:52:43.480Z,75.2
2023-04-01T01:54:43.586Z,75.8
2023-04-01T01:56:43.554Z,78.7
2023-04-01T01:58:43.550Z,76.4
2023-04-01T02:00:43.511Z,76.2
2023-04-01T02:02:49.999Z,76.8
2023-04-01T02:04:43.663Z,76.9
2023-04-01T02:06:43.550Z,77.6
2023-04-01T02:08:43.471Z,77.5
2023-04-01T02:10:43.537Z,79.8
2023-04-01T02:12:43.483Z,79.4
2023-04-01T02:14:43.591Z,78.6
2023-04-01T02:16:43.515Z,79.3
2023-04-01T02:18:43.548Z,79.7
2023-04-01T02:20:43.471Z,78.9
2023-04-01T02:22:43.549Z,79.7
2023-04-01T02:24:43.456Z,80.1
2023-04-01T02:26:43.555Z,79.2
2023-04-01T02:28:43.444Z,79.7
2023-04-01T02:30:43.466Z,79.4
2023-04-01T02:32:43.571Z,79.8
2023-04-01T02:34:43.504Z,79.4
2023-04-01T02:36:43.597Z,79
2023-04-01T02:38:43.586Z,78.8
2023-04-01T02:40:43.508Z,78.9
2023-04-01T02:42:43.473Z,79.9
2023-04-01T02:44:43.455Z,79.2
2023-04-01T02:46:43.479Z,80.6
2023-04-01T02:48:43.488Z,80.3
2023-04-01T02:50:43.489Z,81.4
2023-04-01T02:53:01.132Z,80.6
2023-04-01T02:54:43.474Z,79.9
2023-04-01T02:56:43.510Z,80
2023-04-01T02:58:43.428Z,81.3
2023-04-01T03:00:43.516Z,81.2
2023-04-01T03:02:43.455Z,81.7
2023-04-01T03:04:43.463Z,81.1
2023-04-01T03:06:43.416Z,80.7
2023-04-01T03:08:43.495Z,81
2023-04-01T03:10:43.434Z,81.4
2023-04-01T03:12:43.423Z,80.7
2023-04-01T03:14:43.511Z,80.9
2023-04-01T03:16:43.438Z,80.7
2023-04-01T03:18:43.419Z,80.8
2023-04-01T03:20:43.361Z,80.5
2023-04-01T03:22:43.461Z,81.3
2023-04-01T03:24:43.428Z,80.7
2023-04-01T03:26:43.326Z,81.4
2023-04-01T03:28:43.365Z,80.9
2023-04-01T03:30:43.443Z,81.2
2023-04-01T03:32:43.407Z,81.9
2023-04-01T03:34:43.361Z,82.9
2023-04-01T03:37:23.345Z,81.8
2023-04-01T03:38:43.397Z,82.1
2023-04-01T03:40:43.392Z,81.7
2023-04-01T03:42:43.446Z,80.4
2023-04-01T03:44:43.406Z,80.4
2023-04-01T03:46:43.436Z,80.4
2023-04-01T03:48:43.391Z,80.6
2023-04-01T03:50:00.039Z,80.6
2023-04-01T03:52:50.151Z,81
2023-04-01T03:54:43.468Z,81
2023-04-01T03:56:43.428Z,82.1
2023-04-01T03:58:43.343Z,81.7
2023-04-01T04:00:43.377Z,82.6
2023-04-01T04:02:43.466Z,83.6
2023-04-01T04:04:43.413Z,82.7
2023-04-01T04:06:56.040Z,81.7
2023-04-01T04:08:43.326Z,82.1
2023-04-01T04:10:43.313Z,80.8
2023-04-01T04:12:43.355Z,82
2023-04-01T04:14:43.330Z,81.3
2023-04-01T04:16:43.375Z,80.8
2023-04-01T04:18:43.445Z,80.8
2023-04-01T04:20:43.432Z,80.6
2023-04-01T04:22:43.333Z,80.8
2023-04-01T04:24:43.306Z,81.1
2023-04-01T04:26:43.332Z,81.6
2023-04-01T04:28:43.327Z,81.5
2023-04-01T04:30:43.343Z,81.9
2023-04-01T04:32:43.372Z,81.7
2023-04-01T04:34:43.347Z,81.1
2023-04-01T04:36:43.410Z,81.3
2023-04-01T04:38:25.313Z,81.3
2023-04-01T04:40:43.377Z,81.9
2023-04-01T04:42:43.358Z,82.6
2023-04-01T04:44:42.582Z,82.6
2023-04-01T04:46:43.322Z,81.5
2023-04-01T04:48:43.362Z,81.6
2023-04-01T04:49:45.850Z,81.6
2023-04-01T04:50:43.281Z,81.7
2023-04-01T04:52:43.374Z,81.4
2023-04-01T04:54:43.332Z,81.6
2023-04-01T04:56:43.273Z,82.5
2023-04-01T04:58:43.372Z,82.4
2023-04-01T05:00:43.409Z,82.5
2023-04-01T05:02:43.425Z,82.7
2023-04-01T05:04:43.314Z,82.4
2023-04-01T05:06:43.356Z,82.1
2023-04-01T05:08:43.350Z,82.7
2023-04-01T05:10:43.309Z,83.1
2023-04-01T05:12:43.193Z,83.3
2023-04-01T05:14:43.188Z,82.5
2023-04-01T05:16:43.219Z,82.1
2023-04-01T05:18:43.175Z,82.7
2023-04-01T05:20:43.193Z,82.5
2023-04-01T05:22:43.200Z,82.8
2023-04-01T05:24:43.190Z,82.3
2023-04-01T05:26:43.177Z,82.4
2023-04-01T05:28:43.155Z,82.2
2023-04-01T05:30:43.225Z,83
2023-04-01T05:32:43.223Z,82.8
2023-04-01T05:34:43.203Z,83
2023-04-01T05:36:43.181Z,82.2
2023-04-01T05:38:43.211Z,82.3
2023-04-01T05:40:43.169Z,82.3
2023-04-01T05:42:43.159Z,82.7
2023-04-01T05:44:03.688Z,82.7
2023-04-01T05:46:48.654Z,82.2
2023-04-01T05:48:43.296Z,82.7
2023-04-01T05:50:43.129Z,82.2
2023-04-01T05:52:43.122Z,82.1
2023-04-01T05:54:43.132Z,82.4
2023-04-01T05:56:43.128Z,82.3
2023-04-01T05:58:43.122Z,82.4
2023-04-01T06:00:43.150Z,82.4
2023-04-01T06:02:43.209Z,82.2
2023-04-01T06:04:43.153Z,83.1
2023-04-01T06:06:43.144Z,82.3
2023-04-01T06:08:43.240Z,82.6
2023-04-01T06:10:43.180Z,83
2023-04-01T06:12:43.111Z,83.3
2023-04-01T06:14:43.230Z,83.2
2023-04-01T06:16:43.334Z,82.6
2023-04-01T06:18:43.212Z,82.5
2023-04-01T06:20:43.162Z,82.6
2023-04-01T06:22:43.225Z,83
2023-04-01T06:24:43.230Z,82.6
2023-04-01T06:26:43.140Z,83.3
2023-04-01T06:27:45.192Z,83.3
2023-04-01T06:30:43.196Z,83.7
2023-04-01T06:32:43.194Z,83.6
2023-04-01T06:34:43.190Z,82.9
2023-04-01T06:36:43.170Z,82.9
2023-04-01T06:38:43.205Z,83.2
2023-04-01T06:40:43.146Z,83.1
2023-04-01T06:42:43.201Z,82.5
2023-04-01T06:44:43.183Z,82.9
2023-04-01T06:46:43.151Z,82.3
2023-04-01T06:48:12.271Z,82.3
2023-04-01T06:50:43.191Z,82.9
2023-04-01T06:52:43.182Z,83.6
2023-04-01T06:54:45.892Z,83.4
2023-04-01T06:56:43.191Z,83.5
2023-04-01T06:58:53.010Z,83.2
2023-04-01T07:00:43.182Z,83.3
2023-04-01T07:02:43.296Z,83
2023-04-01T07:04:43.317Z,83.4
2023-04-01T07:06:43.154Z,82.9
2023-04-01T07:08:43.099Z,82.1
2023-04-01T07:10:43.101Z,82.1
2023-04-01T07:12:43.680Z,82.1
2023-04-01T07:14:43.137Z,82.1
2023-04-01T07:16:43.177Z,82
2023-04-01T07:18:43.157Z,82.6
2023-04-01T07:20:43.138Z,82.5
2023-04-01T07:22:43.302Z,82.6
2023-04-01T07:24:43.106Z,83
2023-04-01T07:26:43.192Z,82.5
2023-04-01T07:28:43.120Z,82.9
2023-04-01T07:30:43.203Z,83.1
2023-04-01T07:32:43.166Z,83.1
2023-04-01T07:34:43.130Z,82.7
2023-04-01T07:36:43.135Z,83.3
2023-04-01T07:38:43.189Z,83
2023-04-01T07:40:43.037Z,83.3
2023-04-01T07:42:43.128Z,83.7
2023-04-01T07:44:51.697Z,83.2
2023-04-01T07:45:58.966Z,83.2
2023-04-01T07:46:43.169Z,83.1
2023-04-01T07:48:43.143Z,83.6
2023-04-01T07:50:43.045Z,83.2
2023-04-01T07:52:43.111Z,83.7
2023-04-01T07:54:43.087Z,83.7
2023-04-01T07:56:43.098Z,83.4
2023-04-01T07:58:43.077Z,83.2
2023-04-01T08:00:43.098Z,83.2
2023-04-01T08:02:43.124Z,83.1
2023-04-01T08:04:43.171Z,83.6
2023-04-01T08:06:43.062Z,83.3
2023-04-01T08:08:43.040Z,83.3
2023-04-01T08:10:43.073Z,83.4
2023-04-01T08:12:43.026Z,82.9
2023-04-01T08:14:42.961Z,83.2
2023-04-01T08:16:48.591Z,83.3
2023-04-01T08:18:42.967Z,83.5
2023-04-01T08:20:42.969Z,83.8
2023-04-01T08:22:42.933Z,83.2
2023-04-01T08:24:47.452Z,83.7
2023-04-01T08:26:29.640Z,83.7
2023-04-01T08:28:42.922Z,83.5
2023-04-01T08:30:42.940Z,84
2023-04-01T08:32:42.918Z,83.9
2023-04-01T08:34:42.945Z,83.5
2023-04-01T08:36:42.937Z,83
2023-04-01T08:38:42.922Z,82.8
2023-04-01T08:40:42.942Z,83
2023-04-01T08:42:42.925Z,83.1
2023-04-01T08:44:42.939Z,83.2
2023-04-01T08:46:42.914Z,83.2
2023-04-01T08:48:42.929Z,83.5
2023-04-01T08:50:42.960Z,83.5
2023-04-01T08:52:42.920Z,83.2
2023-04-01T08:54:42.911Z,82.9
2023-04-01T08:56:42.927Z,82.7
2023-04-01T08:58:42.924Z,82.7
2023-04-01T09:00:42.917Z,82.4
2023-04-01T09:02:43.007Z,83
2023-04-01T09:04:42.871Z,83.1
2023-04-01T09:06:43.110Z,82.7
2023-04-01T09:08:43.073Z,82.3
2023-04-01T09:10:43.168Z,82.2
2023-04-01T09:12:43.096Z,82.3
2023-04-01T09:14:42.931Z,82.3
2023-04-01T09:16:43.114Z,82.2
2023-04-01T09:18:43.114Z,82.3
2023-04-01T09:20:43.060Z,82.2
2023-04-01T09:22:43.081Z,82.2
2023-04-01T09:24:42.985Z,82
2023-04-01T09:26:16.027Z,82
2023-04-01T09:28:43.031Z,81.7
2023-04-01T09:30:43.007Z,81.9
2023-04-01T09:32:43.035Z,81.7
2023-04-01T09:34:43.015Z,81.6
2023-04-01T09:37:07.542Z,81
2023-04-01T09:38:42.963Z,81
2023-04-01T09:40:43.001Z,80.2
2023-04-01T09:42:43.054Z,80.6
2023-04-01T09:44:43.029Z,80.2
2023-04-01T09:46:43.063Z,79.5
2023-04-01T09:48:42.970Z,79.9
2023-04-01T09:50:42.978Z,79.8
2023-04-01T09:52:14.076Z,79.8
2023-04-01T09:54:42.747Z,79.7
2023-04-01T09:55:58.051Z,79.1
2023-04-01T09:58:43.610Z,78.7
2023-04-01T10:00:42.996Z,78.9
2023-04-01T10:02:42.982Z,78.9
2023-04-01T10:04:42.975Z,79.1
2023-04-01T10:06:42.947Z,78.7
2023-04-01T10:08:42.968Z,78.8
2023-04-01T10:10:43.029Z,78.6
2023-04-01T10:12:42.945Z,78.2
2023-04-01T10:14:42.894Z,77.7
2023-04-01T10:16:42.965Z,77.8
2023-04-01T10:18:42.904Z,77.9
2023-04-01T10:20:42.904Z,77.9
2023-04-01T10:22:42.956Z,78.1
2023-04-01T10:24:46.918Z,77.9
2023-04-01T10:26:42.952Z,77.9
2023-04-01T10:27:44.104Z,77.9
2023-04-01T10:30:42.962Z,77.9
2023-04-01T10:32:45.027Z,77.6
2023-04-01T10:34:42.925Z,76.7
2023-04-01T10:36:42.947Z,77
2023-04-01T10:38:42.985Z,77.2
2023-04-01T10:40:42.907Z,76.6
2023-04-01T10:42:58.403Z,77.2
2023-04-01T10:44:42.953Z,77
2023-04-01T10:46:44.193Z,76.5
2023-04-01T10:48:42.995Z,77.2
2023-04-01T10:50:42.948Z,77.1
2023-04-01T10:52:43.433Z,77.3
2023-04-01T10:54:42.935Z,76.9
2023-04-01T10:56:42.894Z,76.6
2023-04-01T10:58:42.889Z,76.5
2023-04-01T11:00:42.996Z,76.7
2023-04-01T11:02:42.880Z,76.6
2023-04-01T11:04:42.847Z,76.5
2023-04-01T11:06:42.877Z,75.8
2023-04-01T11:08:42.880Z,76
2023-04-01T11:10:43.479Z,76.2
2023-04-01T11:12:42.794Z,76.2
2023-04-01T11:14:42.938Z,76.2
2023-04-01T11:16:44.098Z,75.7
2023-04-01T11:18:42.823Z,76
2023-04-01T11:20:42.917Z,76.2
2023-04-01T11:22:42.838Z,75.7
2023-04-01T11:24:42.824Z,75.8
2023-04-01T11:26:42.939Z,75.4
2023-04-01T11:28:42.865Z,75.7
2023-04-01T11:30:42.850Z,75.9
2023-04-01T11:32:34.123Z,75.9
2023-04-01T11:34:49.075Z,75.2
2023-04-01T11:36:42.872Z,75.2
2023-04-01T11:38:42.829Z,75.5
2023-04-01T11:41:04.777Z,74.6
2023-04-01T11:42:42.897Z,74.6
2023-04-01T11:44:42.846Z,74.5
2023-04-01T11:46:43.017Z,74.7
2023-04-01T11:48:44.306Z,74.9
2023-04-01T11:50:42.890Z,75.2
2023-04-01T11:52:42.764Z,74.8
2023-04-01T11:54:42.837Z,73.7
2023-04-01T11:56:42.884Z,73.7
2023-04-01T11:58:42.796Z,73.3
2023-04-01T12:00:42.865Z,73.4
2023-04-01T12:02:42.873Z,73.8
2023-04-01T12:04:42.809Z,74
2023-04-01T12:06:59.291Z,73.8
2023-04-01T12:08:42.909Z,73.1
2023-04-01T12:10:42.773Z,72.4
2023-04-01T12:12:47.969Z,72.5
2023-04-01T12:14:42.855Z,72.9
2023-04-01T12:15:50.721Z,72.9
2023-04-01T12:18:44.246Z,72.4
2023-04-01T12:20:43.335Z,72.5
2023-04-01T12:22:42.998Z,72.2
2023-04-01T12:24:42.876Z,72.7
2023-04-01T12:26:42.832Z,73.1
2023-04-01T12:28:42.802Z,72.5
2023-04-01T12:31:12.823Z,72.4
2023-04-01T12:32:42.818Z,72.2
2023-04-01T12:34:44.452Z,72.1
2023-04-01T12:36:42.847Z,72
2023-04-01T12:38:57.990Z,71.5
2023-04-01T12:40:25.098Z,71.5
2023-04-01T12:42:42.851Z,71.8
2023-04-01T12:44:42.836Z,71.3
2023-04-01T12:46:42.790Z,70.3
2023-04-01T12:48:42.866Z,70.8
2023-04-01T12:50:42.775Z,71.1
2023-04-01T12:52:42.831Z,71.1
2023-04-01T12:54:42.853Z,70.7
2023-04-01T12:56:42.793Z,70.6
2023-04-01T12:58:42.777Z,70.2
2023-04-01T13:00:44.992Z,70.2
2023-04-01T13:02:42.832Z,69.7
2023-04-01T13:04:42.781Z,69.7
2023-04-01T13:06:38.417Z,69.7
2023-04-01T13:07:52.240Z,69.7
2023-04-01T13:10:42.778Z,70.2
2023-04-01T13:12:42.814Z,70
2023-04-01T13:14:42.769Z,70.3
2023-04-01T13:16:42.750Z,70.4
2023-04-01T13:18:42.750Z,70.4
2023-04-01T13:20:42.753Z,70.5
2023-04-01T13:22:42.750Z,70.6
2023-04-01T13:24:42.725Z,69.2
2023-04-01T13:26:42.719Z,69.3
2023-04-01T13:28:26.248Z,69.3
2023-04-01T13:29:37.004Z,69.4
2023-04-01T13:30:42.778Z,69.6
2023-04-01T13:32:43.927Z,69.8
2023-04-01T13:34:42.761Z,68.9
2023-04-01T13:36:42.726Z,68.2
2023-04-01T13:38:42.740Z,68.1
2023-04-01T13:40:46.896Z,69
2023-04-01T13:42:42.818Z,68.4
2023-04-01T13:44:42.727Z,68.2
2023-04-01T13:46:42.799Z,68.3
2023-04-01T13:48:42.718Z,68
2023-04-01T13:50:42.818Z,68.4
2023-04-01T13:52:42.821Z,68.3
2023-04-01T13:54:42.791Z,68.1
2023-04-01T13:56:42.732Z,67.6
2023-04-01T13:58:42.912Z,67.8
2023-04-01T14:00:42.747Z,67.7
2023-04-01T14:02:42.752Z,67
2023-04-01T14:04:42.754Z,67.8
2023-04-01T14:06:42.668Z,67.7
2023-04-01T14:08:44.831Z,67.4
2023-04-01T14:10:42.788Z,67.2
2023-04-01T14:12:42.789Z,66.2
2023-04-01T14:14:42.609Z,65.7
2023-04-01T14:16:42.771Z,66.2
2023-04-01T14:18:42.657Z,65.7
2023-04-01T14:20:42.799Z,65.7
2023-04-01T14:22:42.796Z,66.1
2023-04-01T14:24:47.966Z,65.5
2023-04-01T14:26:42.694Z,65.5
2023-04-01T14:28:42.740Z,64.9
2023-04-01T14:30:42.689Z,64.2
2023-04-01T14:32:42.731Z,63.9
2023-04-01T14:34:42.697Z,63.2
2023-04-01T14:36:42.705Z,63.3
2023-04-01T14:38:42.689Z,64.1
2023-04-01T14:40:42.652Z,64.5
2023-04-01T14:42:42.653Z,63.4
2023-04-01T14:44:42.810Z,63.4
2023-04-01T14:46:42.705Z,63.5
2023-04-01T14:48:42.681Z,63
2023-04-01T14:50:42.698Z,63.5
2023-04-01T14:52:42.712Z,63.4
2023-04-01T14:54:42.736Z,61.6
2023-04-01T14:56:42.694Z,61.5
2023-04-01T14:58:42.693Z,61
2023-04-01T15:01:00.589Z,62
2023-04-01T15:02:42.764Z,60.4
2023-04-01T15:04:42.853Z,60.4
2023-04-01T15:06:42.656Z,60.6
2023-04-01T15:08:42.523Z,60.8
2023-04-01T15:10:42.714Z,60.8
2023-04-01T15:12:23.841Z,60.8
2023-04-01T15:14:42.711Z,59.9
2023-04-01T15:16:46.929Z,60.4
2023-04-01T15:18:42.588Z,60.3
2023-04-01T15:20:42.615Z,60.3
2023-04-01T15:22:42.775Z,60.2
2023-04-01T15:24:42.611Z,59.6
2023-04-01T15:26:42.617Z,59.8
2023-04-01T15:28:42.594Z,60
2023-04-01T15:30:42.577Z,59.1
2023-04-01T15:31:57.190Z,59.1
2023-04-01T15:33:51.601Z,59.4
2023-04-01T15:36:41.694Z,59.2
2023-04-01T15:38:42.571Z,59.1
2023-04-01T15:40:31.227Z,59.1
2023-04-01T15:43:09.650Z,59.4
2023-04-01T15:44:42.539Z,59.2
2023-04-01T15:47:11.984Z,59
2023-04-01T15:49:10.643Z,58.8
2023-04-01T15:50:52.906Z,59.4
2023-04-01T15:52:42.564Z,58.5
2023-04-01T15:54:42.589Z,57.9
2023-04-01T15:56:42.647Z,58.3
2023-04-01T15:58:42.457Z,57
2023-04-01T16:00:42.657Z,57.2
2023-04-01T16:03:04.930Z,56.3
2023-04-01T16:04:59.473Z,55.8
2023-04-01T16:06:42.621Z,56
2023-04-01T16:08:42.629Z,56.2
2023-04-01T16:10:42.593Z,55.3
2023-04-01T16:12:50.064Z,56.6
2023-04-01T16:14:42.596Z,56.6
2023-04-01T16:16:42.853Z,56.8
2023-04-01T16:18:42.578Z,55.3
2023-04-01T16:20:42.521Z,56
2023-04-01T16:22:42.551Z,56.6
2023-04-01T16:24:42.519Z,55.7
2023-04-01T16:26:42.548Z,56.1
2023-04-01T16:28:42.470Z,56.1
2023-04-01T16:31:05.360Z,56.4
2023-04-01T16:32:42.652Z,56.3
2023-04-01T16:34:42.538Z,56.6
2023-04-01T16:36:42.659Z,54.8
2023-04-01T16:37:49.126Z,54.8
2023-04-01T16:40:42.575Z,55.6
2023-04-01T16:42:43.049Z,55.3
2023-04-01T16:44:42.580Z,55.7
2023-04-01T16:47:04.373Z,56.4
2023-04-01T16:48:42.614Z,55.8
2023-04-01T16:50:42.664Z,55.3
2023-04-01T16:52:42.494Z,55.2
2023-04-01T16:54:42.585Z,55.4
2023-04-01T16:56:42.586Z,56.9
2023-04-01T16:58:42.524Z,56.6
2023-04-01T17:00:42.547Z,57.1
2023-04-01T17:02:36.992Z,57.1
2023-04-01T17:04:42.578Z,57.6
2023-04-01T17:06:42.602Z,57
2023-04-01T17:08:42.495Z,57.3
2023-04-01T17:10:42.512Z,57.9
2023-04-01T17:12:54.986Z,57.4
2023-04-01T17:15:11.922Z,57.6
2023-04-01T17:16:42.456Z,57
2023-04-01T17:18:42.479Z,56.6
2023-04-01T17:20:42.560Z,55.6
2023-04-01T17:22:42.544Z,55.5
2023-04-01T17:24:42.472Z,55.4
2023-04-01T17:26:42.578Z,55.7
2023-04-01T17:29:04.871Z,55.8
2023-04-01T17:30:18.180Z,55.8
2023-04-01T17:31:23.058Z,56.4
2023-04-01T17:32:42.503Z,56.3
2023-04-01T17:34:42.634Z,56.3
2023-04-01T17:36:42.559Z,56.5
2023-04-01T17:38:42.398Z,58.1
2023-04-01T17:40:42.536Z,58.6
2023-04-01T17:42:42.461Z,58.3
2023-04-01T17:44:42.472Z,59
2023-04-01T17:46:42.538Z,60.2
2023-04-01T17:48:42.521Z,60.4
2023-04-01T17:50:42.459Z,60.5
2023-04-01T17:52:42.505Z,60.9
2023-04-01T17:54:42.464Z,61.9
2023-04-01T17:56:42.470Z,61.8
2023-04-01T17:58:42.461Z,61.4
2023-04-01T18:00:50.920Z,61.9
2023-04-01T18:02:42.563Z,61.3
2023-04-01T18:04:42.441Z,61.8
2023-04-01T18:06:48.941Z,61.5
2023-04-01T18:08:42.464Z,61.7
2023-04-01T18:10:42.493Z,62
2023-04-01T18:12:42.435Z,62.1
2023-04-01T18:14:42.514Z,62.6
2023-04-01T18:16:42.501Z,63.2
2023-04-01T18:18:42.496Z,62.7
2023-04-01T18:20:42.439Z,62.7
2023-04-01T18:22:42.519Z,62.4
2023-04-01T18:24:42.433Z,62.9
2023-04-01T18:26:42.413Z,62.4
2023-04-01T18:28:42.514Z,62.6
2023-04-01T18:30:42.456Z,62.6
2023-04-01T18:31:50.341Z,62.6
2023-04-01T18:35:31.151Z,61.8
2023-04-01T18:36:42.463Z,62.6
2023-04-01T18:38:42.496Z,62.1
2023-04-01T18:40:42.454Z,61.5
2023-04-01T18:42:42.393Z,61.7
2023-04-01T18:44:42.471Z,61.8
2023-04-01T18:46:42.412Z,61.3
2023-04-01T18:48:43.734Z,61
2023-04-01T18:50:42.437Z,61.4
2023-04-01T18:52:42.378Z,61.8
2023-04-01T18:54:42.447Z,60.8
2023-04-01T18:56:42.413Z,61.3
2023-04-01T18:57:59.353Z,61.3
2023-04-01T18:59:39.609Z,61.3
2023-04-01T19:00:42.434Z,59.9
2023-04-01T19:02:42.442Z,60.4
2023-04-01T19:04:42.473Z,61.2
2023-04-01T19:06:29.389Z,61.2
2023-04-01T19:08:42.463Z,59.5
2023-04-01T19:10:42.342Z,59.6
2023-04-01T19:12:42.380Z,60.1
2023-04-01T19:14:42.392Z,58.8
2023-04-01T19:16:42.345Z,58.2
2023-04-01T19:18:42.374Z,58.2
2023-04-01T19:20:42.371Z,57.7
2023-04-01T19:22:42.337Z,57.1
2023-04-01T19:24:42.380Z,56.5
2023-04-01T19:26:42.359Z,56.5
2023-04-01T19:28:42.308Z,56.1
2023-04-01T19:30:42.388Z,56.5
2023-04-01T19:32:42.412Z,56.3
2023-04-01T19:34:42.390Z,56.8
2023-04-01T19:36:42.421Z,57
2023-04-01T19:38:42.353Z,56
2023-04-01T19:39:50.319Z,56
2023-04-01T19:42:42.591Z,56.2
2023-04-01T19:44:42.354Z,55.8
2023-04-01T19:46:42.488Z,55.6
2023-04-01T19:48:42.304Z,54.7
2023-04-01T19:50:42.386Z,54.9
2023-04-01T19:52:42.379Z,54.9
2023-04-01T19:54:42.334Z,54.5
2023-04-01T19:56:42.415Z,55.3
2023-04-01T19:58:42.392Z,54.7
2023-04-01T20:00:42.358Z,53.9
2023-04-01T20:02:42.469Z,54.1
2023-04-01T20:04:46.057Z,53.8
2023-04-01T20:06:42.373Z,53.6
2023-04-01T20:08:42.392Z,53.2
2023-04-01T20:10:42.326Z,53.9
2023-04-01T20:12:42.371Z,54.3
2023-04-01T20:14:42.397Z,53.5
2023-04-01T20:16:55.251Z,53.5
2023-04-01T20:18:42.353Z,54.1
2023-04-01T20:20:42.371Z,54
2023-04-01T20:22:42.334Z,53.9
2023-04-01T20:24:19.062Z,53.9
2023-04-01T20:26:13.377Z,53.5
2023-04-01T20:28:42.329Z,54
2023-04-01T20:30:42.293Z,53.9
2023-04-01T20:32:42.307Z,53.9
2023-04-01T20:34:42.397Z,54.3
2023-04-01T20:36:42.380Z,54.1
2023-04-01T20:38:42.317Z,53.6
2023-04-01T20:40:42.292Z,53.7
2023-04-01T20:42:42.310Z,54.5
2023-04-01T20:44:42.374Z,54.5
2023-04-01T20:46:42.338Z,54.8
2023-04-01T20:48:42.329Z,54.6
2023-04-01T20:50:42.298Z,54.8
2023-04-01T20:52:42.252Z,54.3
2023-04-01T20:54:42.325Z,55.2
2023-04-01T20:56:42.211Z,55
2023-04-01T20:58:42.293Z,55.2
2023-04-01T21:00:58.940Z,54.5
2023-04-01T21:02:42.274Z,54.5
2023-04-01T21:04:42.403Z,54.7
2023-04-01T21:06:42.353Z,54.7
2023-04-01T21:08:42.327Z,54.4
2023-04-01T21:10:42.344Z,54.9
2023-04-01T21:12:44.540Z,55.4
2023-04-01T21:14:42.287Z,55.1
2023-04-01T21:16:42.265Z,54.4
2023-04-01T21:18:42.404Z,54.8
2023-04-01T21:20:42.395Z,54.7
2023-04-01T21:22:42.333Z,55.4
2023-04-01T21:24:42.293Z,55.2
2023-04-01T21:26:43.814Z,54.9
2023-04-01T21:28:42.244Z,55.5
2023-04-01T21:30:42.335Z,55.8
2023-04-01T21:32:42.210Z,54
2023-04-01T21:34:42.238Z,54.7
2023-04-01T21:36:36.298Z,54.7
2023-04-01T21:38:42.288Z,54.9
2023-04-01T21:40:42.227Z,54.5
2023-04-01T21:42:42.262Z,54.1
2023-04-01T21:44:42.236Z,53.7
2023-04-01T21:46:42.351Z,54.1
2023-04-01T21:48:42.232Z,53.2
2023-04-01T21:50:42.313Z,53
2023-04-01T21:52:42.274Z,53.7
2023-04-01T21:54:42.255Z,54
2023-04-01T21:56:42.212Z,53.7
2023-04-01T21:58:42.240Z,53.6
2023-04-01T22:00:42.210Z,53.5
2023-04-01T22:02:42.293Z,53.3
2023-04-01T22:04:42.229Z,53.4
2023-04-01T22:06:00.297Z,53.4
2023-04-01T22:08:42.236Z,52.8
2023-04-01T22:10:42.213Z,52.7
2023-04-01T22:12:42.209Z,52.8
2023-04-01T22:14:42.189Z,53.4
2023-04-01T22:16:42.250Z,52.4
2023-04-01T22:18:42.252Z,52.8
2023-04-01T22:20:42.279Z,52.1
2023-04-01T22:22:42.181Z,52.5
2023-04-01T22:24:42.193Z,52.1
2023-04-01T22:26:42.207Z,52.3
2023-04-01T22:28:42.162Z,52.6
2023-04-01T22:30:42.164Z,51.7
2023-04-01T22:32:42.251Z,52.1
2023-04-01T22:34:42.245Z,51.8
2023-04-01T22:36:42.212Z,51.2
2023-04-01T22:38:42.201Z,51.7
2023-04-01T22:40:42.212Z,52.3
2023-04-01T22:42:42.201Z,52.1
2023-04-01T22:44:42.216Z,51.4
2023-04-01T22:46:42.174Z,51.4
2023-04-01T22:48:42.177Z,50.6
2023-04-01T22:50:42.184Z,51.3
2023-04-01T22:52:42.163Z,50.9
2023-04-01T22:54:42.226Z,51.2
2023-04-01T22:56:42.166Z,51.7
2023-04-01T22:58:42.099Z,51
2023-04-01T23:00:42.141Z,50.4
2023-04-01T23:02:42.161Z,49.7
2023-04-01T23:04:42.249Z,50.2
2023-04-01T23:06:42.078Z,49.8
2023-04-01T23:08:42.204Z,49.4
2023-04-01T23:11:06.347Z,49.3
2023-04-01T23:12:32.261Z,49.3
2023-04-01T23:14:42.195Z,48.7
2023-04-01T23:16:42.189Z,49.2
2023-04-01T23:18:42.168Z,49
2023-04-01T23:20:59.894Z,48.3
2023-04-01T23:22:42.150Z,48.7
2023-04-01T23:24:42.131Z,48.6
2023-04-01T23:26:42.102Z,48.6
2023-04-01T23:28:42.138Z,48.7
2023-04-01T23:30:42.110Z,48.4
2023-04-01T23:32:42.279Z,48.6
2023-04-01T23:34:42.332Z,49
2023-04-01T23:36:42.204Z,49.2
2023-04-01T23:38:42.132Z,48.6
2023-04-01T23:40:42.198Z,49.2
2023-04-01T23:42:42.176Z,49.7
2023-04-01T23:44:42.151Z,49.7
2023-04-01T23:46:42.223Z,49.2
2023-04-01T23:48:42.151Z,50
2023-04-01T23:50:42.140Z,50.2
2023-04-01T23:51:59.669Z,50.2
2023-04-01T23:54:42.142Z,50.9
2023-04-01T23:56:42.086Z,50.8
2023-04-01T23:58:42.131Z,50.8
